Ride Results

New Italy (16-08-2014)
Ride distance: 80.0 km

Outcomes - New Italy (16-08-2014)
Division No. of Entries Retired / DNE Completed Withdrawn Ineligible V/O Percentage Completed
HW 6 - 3 1 - 2 50.00%
MW 14 - 12 1 - 1 85.71%
LW 8 - 7 - - 1 87.50%
JN 3 - 2 - - 1 66.67%
Totals 31 - 24 2 - 5 77.42%
Results - New Italy (16-08-2014)
No. Rider Horse Place Time Leg Speeds Total
Km/Hr
H/R bpm
Heavyweight
22 Ron Haigh Bacchante Dreamworks 1 (BC) 6:09:00 13.2, 12.7 13.01 58, 44, 41 (Avg:42)
23 Angela Ward Redford 1 6:09:00 13.2, 12.7 13.01 44, 46, 57 (Avg:51)
5 Maurice Gray Longrun Ambrose 3 6:39:00 12.9, 11.2 12.03 38, 42, 45 (Avg:43)
4 Ricky Petersen Brookleigh Angelina-Jolie Lame L2 0:00:00 12.9, 11.2 - 33, 38, 44 (Avg:41)
9 Allyson Taylor Bonnie Downs Aisha Lame L1 0:00:00 13.3 - 42, 52 (Avg:52)
20 Selwyn Nix Dunbar Mahadik Withdrawn P/R 0:00:00 - - 46
Middleweight
6 Stephen Gray Kasbah Kid 1 (BC) 4:41:00 17.7, 16.4 17.08 38, 48, 49 (Avg:48)
30 Rachael Keys Elfar Karnella 2 5:57:00 13.7, 13.1 13.45 38, 43, 38 (Avg:40)
17 Ian Davidson Picnic Park Steel Pulse 3 6:18:00 12.6, 12.7 12.70 37, 40, 57 (Avg:48)
16 Rhys Rayner Summervale Storm 3 6:18:00 12.6, 12.7 12.70 39, 45, 50 (Avg:47)
7 Sabrina Stephens El Sarem Glyde 5 6:26:00 12.9, 11.9 12.44 34, 38, 46 (Avg:42)
13 Dean Chamberlain Annordean Lady Annette 6 6:28:00 12.5, 12.1 12.37 34, 39, 42 (Avg:40)
18 Jessyca Dakin Bashan Bayda 7 6:30:00 11.4, 13.2 12.31 35, 44, 50 (Avg:47)
24 Leanne McLaughlin Ramalea Petria 8 6:31:00 13.3, 11.3 12.28 49, 37, 44 (Avg:40)
12 Tracey Hutchinson Woodbourne Granite 9 6:43:00 12.1, 11.6 11.91 41, 39, 52 (Avg:45)
21 Derryn Nix Dunbar El Maestro 10 7:21:00 10.5, 11.2 10.88 36, 39, 45 (Avg:42)
31 Corey Nix Castlebar Cartier 10 7:21:00 10.5, 11.2 10.88 34, 36, 36 (Avg:36)
28 Wayne Parker Splitters Creek Kailhan 12 7:45:00 10.8, 9.8 10.32 47, 45, 54 (Avg:49)
2 Karen Lee Shatahnia Withdrawn L1 0:00:00 - - 36, 54 (Avg:54)
19 Samantha Yates Love You Blazer Lame L1 0:00:00 11.4 - 43, 36 (Avg:36)
Lightweight
15 Clare Fleming Flemingo Makkaddie 1 (BC) 4:53:00 17.3, 15.4 16.38 40, 47, 51 (Avg:49)
29 Kim Ruehe Alcienne Dominion 2 5:32:00 16.5, 12.8 14.46 41, 43, 51 (Avg:47)
14 Annette Chamberlain Annordean Lady Lilly 3 5:57:00 13.7, 13.1 13.45 49, 45, 48 (Avg:46)
32 Carly Nix Razorback Blue Rhapsody 4 5:59:00 13.4, 13.3 13.37 47, 42, 44 (Avg:43)
10 Libby Jones Mr Chips 5 6:43:00 12.1, 11.6 11.91 30, 40, 44 (Avg:42)
11 Melissa McCoullough Cherox Kenya 5 6:43:00 12.1, 11.6 11.91 33, 36, 42 (Avg:39)
25 Robyn Brazel Thomas 7 7:22:00 10.8, 10.9 10.86 39, 42, 54 (Avg:48)
8 Janelle Roosen Yindarra Saphire Lame L2 0:00:00 12.9, 11.9 - 33, 43, 44 (Avg:43)
Junior
3 Isabel Foster Sharabel Kalarney 1 (BC) 5:54:00 14.3, 12.8 13.56 33, 47, 48 (Avg:47)
26 Tahlia Franke Kalkadoon Alfresco 2 7:49:00 9.5, 11.0 10.23 36, 44, 40 (Avg:42)
27 Gemma Dickenson Ra Silver Dancer Heart Rate L1 0:00:00 8.1 - 35, 62 (Avg:62)